createdAt,value
2023-02-27T00:01:31.330Z,96927.66
2023-02-27T00:03:59.220Z,96926.78
2023-02-27T00:06:29.053Z,96926.78
2023-02-27T00:08:58.470Z,96919.88
2023-02-27T00:11:27.043Z,96920.13
2023-02-27T00:13:56.166Z,96922.63
2023-02-27T00:16:25.235Z,96923.31
2023-02-27T00:18:54.126Z,96923.22
2023-02-27T00:21:23.139Z,96917.31
2023-02-27T00:23:52.728Z,96927.59
2023-02-27T00:26:20.686Z,96915.78
2023-02-27T00:28:48.723Z,96917.44
2023-02-27T00:31:17.455Z,96920.19
2023-02-27T00:33:45.316Z,96914.09
2023-02-27T00:36:14.431Z,96911.44
2023-02-27T00:38:43.035Z,96919.19
2023-02-27T00:41:12.297Z,96915.06
2023-02-27T00:43:40.974Z,96916.78
2023-02-27T00:46:10.210Z,96916.78
2023-02-27T00:48:38.508Z,96920.34
2023-02-27T00:51:06.816Z,96915.06
2023-02-27T00:53:35.371Z,96909.97
2023-02-27T00:56:30.347Z,96910.06
2023-02-27T00:58:59.938Z,96917.84
2023-02-27T01:01:28.144Z,96909.13
2023-02-27T01:03:57.760Z,96913.38
2023-02-27T01:06:27.021Z,96910.97
2023-02-27T01:08:56.871Z,96910.16
2023-02-27T01:11:26.107Z,96912.69
2023-02-27T01:13:56.473Z,96904.00
2023-02-27T01:16:25.205Z,96906.53
2023-02-27T01:18:53.078Z,96916.16
2023-02-27T01:21:21.249Z,96911.91
2023-02-27T01:23:49.170Z,96909.31
2023-02-27T01:26:20.981Z,96904.03
2023-02-27T01:28:49.507Z,96899.78
2023-02-27T01:31:19.150Z,96909.44
2023-02-27T01:33:49.780Z,96904.34
2023-02-27T01:36:18.133Z,96899.09
2023-02-27T01:38:46.165Z,96895.84
2023-02-27T01:41:14.533Z,96893.94
2023-02-27T01:44:00.451Z,96892.91
2023-02-27T01:46:30.877Z,96889.50
2023-02-27T01:49:03.989Z,96887.94
2023-02-27T01:51:36.269Z,96888.88
2023-02-27T01:54:09.254Z,96885.31
2023-02-27T01:56:37.680Z,96886.28
2023-02-27T01:59:08.673Z,96893.09
2023-02-27T02:01:39.008Z,96894.03
2023-02-27T02:04:13.932Z,96892.25
2023-02-27T02:06:45.839Z,96895.69
2023-02-27T02:09:16.840Z,96890.53
2023-02-27T02:11:45.440Z,96894.97
2023-02-27T02:14:13.349Z,96896.59
2023-02-27T02:17:02.486Z,96890.44
2023-02-27T02:20:02.076Z,96887.16
2023-02-27T02:23:12.277Z,96897.34
2023-02-27T02:26:13.921Z,96887.09
2023-02-27T02:29:11.199Z,96901.59
2023-02-27T02:32:09.002Z,96898.28
2023-02-27T02:35:13.511Z,96893.03
2023-02-27T02:38:18.740Z,96894.00
2023-02-27T02:40:53.802Z,96887.94
2023-02-27T02:43:28.807Z,96886.28
2023-02-27T02:46:04.323Z,96896.63
2023-02-27T02:48:43.005Z,96887.91
2023-02-27T02:51:21.057Z,96897.63
2023-02-27T02:53:57.846Z,96888.00
2023-02-27T02:56:34.124Z,96896.72
2023-02-27T02:59:07.342Z,96900.97
2023-02-27T03:01:40.721Z,96896.63
2023-02-27T03:04:15.441Z,96894.94
2023-02-27T03:06:49.067Z,96897.44
2023-02-27T03:09:22.196Z,96906.16
2023-02-27T03:11:55.616Z,96901.69
2023-02-27T03:14:30.158Z,96907.88
2023-02-27T03:17:03.337Z,96895.72
2023-02-27T03:19:38.871Z,96900.03
2023-02-27T03:22:10.451Z,96901.22
2023-02-27T03:24:43.526Z,96905.41
2023-02-27T03:27:14.442Z,96899.50
2023-02-27T03:29:50.575Z,96903.63
2023-02-27T03:32:26.134Z,96900.22
2023-02-27T03:34:54.297Z,96899.38
2023-02-27T03:37:30.538Z,96905.38
2023-02-27T03:40:07.519Z,96906.41
2023-02-27T03:42:40.862Z,96906.31
2023-02-27T03:45:23.640Z,96911.41
2023-02-27T03:47:54.584Z,96910.59
2023-02-27T03:50:22.901Z,96928.59
2023-02-27T03:52:51.543Z,96926.06
2023-02-27T03:55:24.573Z,96914.84
2023-02-27T03:57:56.566Z,96921.88
2023-02-27T04:00:27.163Z,96922.88
2023-02-27T04:02:58.491Z,96934.78
2023-02-27T04:05:28.970Z,96927.84
2023-02-27T04:08:27.871Z,96933.78
2023-02-27T04:11:17.841Z,96930.34
2023-02-27T04:13:58.939Z,96931.25
2023-02-27T04:16:53.322Z,96932.22
2023-02-27T04:19:42.563Z,96938.22
2023-02-27T04:22:24.470Z,96934.78
2023-02-27T04:25:02.826Z,96934.78
2023-02-27T04:27:38.343Z,96939.97
2023-02-27T04:30:24.223Z,96931.44
2023-02-27T04:32:58.288Z,96931.44
2023-02-27T04:35:34.192Z,96933.25
2023-02-27T04:38:08.949Z,96935.81
2023-02-27T04:40:45.844Z,96926.41
2023-02-27T04:43:16.794Z,96938.31
2023-02-27T04:45:49.837Z,96939.22
2023-02-27T04:48:22.801Z,96939.22
2023-02-27T04:50:56.527Z,96937.44
2023-02-27T04:53:30.053Z,96937.44
2023-02-27T04:56:03.628Z,96934.84
2023-02-27T04:58:36.199Z,96936.53
2023-02-27T05:01:12.722Z,96936.56
2023-02-27T05:03:45.956Z,96939.97
2023-02-27T05:06:19.095Z,96933.13
2023-02-27T05:09:00.234Z,96934.97
2023-02-27T05:11:32.712Z,96940.06
2023-02-27T05:14:07.850Z,96943.66
2023-02-27T05:16:43.752Z,96939.31
2023-02-27T05:19:12.583Z,96941.84
2023-02-27T05:21:48.326Z,96944.50
2023-02-27T05:24:24.955Z,96942.81
2023-02-27T05:27:13.148Z,96944.50
2023-02-27T05:29:49.375Z,96957.44
2023-02-27T05:32:30.882Z,96956.59
2023-02-27T05:35:09.081Z,96957.44
2023-02-27T05:37:45.113Z,96962.63
2023-02-27T05:40:16.906Z,96953.38
2023-02-27T05:42:50.623Z,96961.00
2023-02-27T05:45:23.672Z,96962.78
2023-02-27T05:48:00.194Z,96964.56
2023-02-27T05:50:30.926Z,96966.28
2023-02-27T05:53:03.570Z,96971.47
2023-02-27T05:55:36.902Z,96976.88
2023-02-27T05:58:12.588Z,96971.53
2023-02-27T06:00:45.407Z,96974.19
2023-02-27T06:03:15.375Z,96970.06
2023-02-27T06:05:46.246Z,96970.97
2023-02-27T06:08:14.823Z,96979.47
2023-02-27T06:10:42.641Z,96969.97
2023-02-27T06:13:10.684Z,96969.97
2023-02-27T06:15:38.970Z,96975.41
2023-02-27T06:18:08.179Z,96975.16
2023-02-27T06:20:38.273Z,96974.28
2023-02-27T06:23:06.658Z,96979.56
2023-02-27T06:25:34.902Z,96980.41
2023-02-27T06:28:04.623Z,96980.41
2023-02-27T06:30:32.911Z,96986.41
2023-02-27T06:33:01.268Z,96985.75
2023-02-27T06:35:31.031Z,96988.31
2023-02-27T06:38:00.329Z,96989.91
2023-02-27T06:40:29.217Z,96989.81
2023-02-27T06:42:57.877Z,96996.63
2023-02-27T06:45:25.764Z,96991.50
2023-02-27T06:47:55.752Z,96997.47
2023-02-27T06:50:24.027Z,96989.66
2023-02-27T06:52:52.042Z,96997.47
2023-02-27T06:55:22.656Z,96996.47
2023-02-27T06:57:50.841Z,97007.69
2023-02-27T07:00:19.833Z,97005.09
2023-02-27T07:02:47.649Z,97004.16
2023-02-27T07:05:15.574Z,97008.41
2023-02-27T07:07:43.479Z,97010.00
2023-02-27T07:10:14.356Z,97009.97
2023-02-27T07:12:43.623Z,97004.72
2023-02-27T07:15:12.456Z,97014.41
2023-02-27T07:17:40.344Z,97013.22
2023-02-27T07:20:10.427Z,97013.25
2023-02-27T07:22:39.121Z,97017.56
2023-02-27T07:25:08.504Z,97013.97
2023-02-27T07:27:36.495Z,97012.13
2023-02-27T07:30:06.474Z,97025.88
2023-02-27T07:32:34.403Z,97023.94
2023-02-27T07:35:03.307Z,97026.50
2023-02-27T07:37:31.224Z,97024.56
2023-02-27T07:39:59.062Z,97021.28
2023-02-27T07:42:27.026Z,97028.75
2023-02-27T07:44:55.725Z,97028.59
2023-02-27T07:47:25.666Z,97023.31
2023-02-27T07:49:53.703Z,97025.84
2023-02-27T07:52:22.716Z,97024.72
2023-02-27T07:54:50.695Z,97018.72
2023-02-27T07:57:18.613Z,97021.19
2023-02-27T07:59:46.445Z,97029.75
2023-02-27T08:02:14.340Z,97032.34
2023-02-27T08:04:43.666Z,97027.81
2023-02-27T08:07:11.549Z,97031.94
2023-02-27T08:09:39.412Z,97026.69
2023-02-27T08:12:08.761Z,97033.59
2023-02-27T08:14:36.648Z,97023.97
2023-02-27T08:17:04.486Z,97035.88
2023-02-27T08:19:33.131Z,97044.72
2023-02-27T08:22:03.657Z,97038.41
2023-02-27T08:24:31.450Z,97030.50
2023-02-27T08:26:59.706Z,97031.31
2023-02-27T08:29:28.435Z,97044.06
2023-02-27T08:31:56.406Z,97031.69
2023-02-27T08:34:25.569Z,97025.81
2023-02-27T08:36:53.859Z,97035.84
2023-02-27T08:39:25.334Z,97035.09
2023-02-27T08:41:53.860Z,97033.09
2023-02-27T08:44:22.379Z,97031.13
2023-02-27T08:46:51.196Z,97039.75
2023-02-27T08:49:21.449Z,97047.50
2023-02-27T08:51:49.544Z,97048.09
2023-02-27T08:54:18.566Z,97050.72
2023-02-27T08:56:48.853Z,97053.28
2023-02-27T08:59:17.187Z,97054.16
2023-02-27T09:01:45.040Z,97051.28
2023-02-27T09:04:13.084Z,97052.94
2023-02-27T09:06:41.164Z,97054.50
2023-02-27T09:09:09.465Z,97068.16
2023-02-27T09:11:38.832Z,97069.94
2023-02-27T09:14:09.364Z,97056.81
2023-02-27T09:16:37.219Z,97054.03
2023-02-27T09:19:05.174Z,97060.84
2023-02-27T09:21:33.072Z,97054.66
2023-02-27T09:24:13.712Z,97064.84
2023-02-27T09:26:47.166Z,97063.19
2023-02-27T09:29:16.891Z,97057.13
2023-02-27T09:31:44.847Z,97055.13
2023-02-27T09:34:13.544Z,97052.38
2023-02-27T09:36:43.464Z,97053.09
2023-02-27T09:39:12.167Z,97059.78
2023-02-27T09:41:48.898Z,97064.97
2023-02-27T09:44:39.897Z,97046.56
2023-02-27T09:47:17.535Z,97061.16
2023-02-27T09:49:55.284Z,97059.28
2023-02-27T09:52:23.558Z,97061.63
2023-02-27T09:54:51.865Z,97079.19
2023-02-27T09:57:29.161Z,97055.72
2023-02-27T10:00:07.190Z,97061.56
2023-02-27T10:02:49.663Z,97056.81
2023-02-27T10:05:28.256Z,97062.66
2023-02-27T10:08:04.811Z,97071.34
2023-02-27T10:10:39.271Z,97073.69
2023-02-27T10:13:28.289Z,97062.41
2023-02-27T10:16:00.869Z,97075.03
2023-02-27T10:18:32.686Z,97068.75
2023-02-27T10:21:04.287Z,97070.47
2023-02-27T10:23:40.068Z,97076.22
2023-02-27T10:26:15.134Z,97073.44
2023-02-27T10:28:42.934Z,97079.34
2023-02-27T10:31:21.155Z,97079.13
2023-02-27T10:33:49.586Z,97072.03
2023-02-27T10:36:32.542Z,97082.22
2023-02-27T10:39:06.482Z,97087.66
2023-02-27T10:41:37.059Z,97085.63
2023-02-27T10:44:06.266Z,97096.84
2023-02-27T10:46:39.347Z,97080.41
2023-02-27T10:49:17.579Z,97083.13
2023-02-27T10:51:47.696Z,97092.63
2023-02-27T10:54:26.475Z,97093.31
2023-02-27T10:56:57.448Z,97094.13
2023-02-27T10:59:28.441Z,97087.22
2023-02-27T11:02:00.574Z,97106.31
2023-02-27T11:04:34.367Z,97080.91
2023-02-27T11:07:05.560Z,97085.19
2023-02-27T11:09:34.969Z,97090.25
2023-02-27T11:12:21.431Z,97084.97
2023-02-27T11:14:51.472Z,97083.78
2023-02-27T11:17:27.285Z,97074.97
2023-02-27T11:19:55.463Z,97070.50
2023-02-27T11:22:25.735Z,97068.91
2023-02-27T11:25:17.451Z,97093.19
2023-02-27T11:27:47.694Z,97067.09
2023-02-27T11:30:24.905Z,97060.53
2023-02-27T11:32:56.493Z,97062.03
2023-02-27T11:35:29.671Z,97062.13
2023-02-27T11:38:01.269Z,97061.97
2023-02-27T11:40:32.799Z,97070.59
2023-02-27T11:43:06.008Z,97070.53
2023-02-27T11:46:05.154Z,97081.16
2023-02-27T11:48:30.703Z,97075.00
2023-02-27T11:51:10.245Z,97087.19
2023-02-27T11:54:04.195Z,97069.00
2023-02-27T11:56:36.993Z,97060.03
2023-02-27T11:59:14.213Z,97070.81
2023-02-27T12:01:48.983Z,97069.13
2023-02-27T12:04:25.565Z,97078.78
2023-02-27T12:07:00.162Z,97082.03
2023-02-27T12:09:45.407Z,97053.38
2023-02-27T12:12:21.599Z,97060.72
2023-02-27T12:14:58.634Z,97075.94
2023-02-27T12:17:31.425Z,97058.88
2023-02-27T12:20:19.913Z,97069.34
2023-02-27T12:22:50.783Z,97068.94
2023-02-27T12:25:29.910Z,97062.13
2023-02-27T12:28:03.790Z,97066.06
2023-02-27T12:30:37.424Z,97051.34
2023-02-27T12:33:17.122Z,97041.94
2023-02-27T12:35:50.901Z,97047.94
2023-02-27T12:38:21.393Z,97040.69
2023-02-27T12:41:01.453Z,97046.56
2023-02-27T12:43:37.621Z,97040.97
2023-02-27T12:46:36.947Z,97047.44
2023-02-27T12:49:18.758Z,97038.63
2023-02-27T12:51:59.094Z,97048.75
2023-02-27T12:54:36.119Z,97031.78
2023-02-27T12:57:22.820Z,97043.25
2023-02-27T13:00:06.459Z,97038.94
2023-02-27T13:02:51.434Z,97060.78
2023-02-27T13:05:37.670Z,97040.75
2023-02-27T13:08:19.530Z,97050.41
2023-02-27T13:10:52.688Z,97046.34
2023-02-27T13:13:28.086Z,97047.31
2023-02-27T13:16:00.695Z,97050.47
2023-02-27T13:18:38.237Z,97049.00
2023-02-27T13:21:13.409Z,97047.59
2023-02-27T13:23:58.304Z,97043.19
2023-02-27T13:26:29.887Z,97037.53
2023-02-27T13:28:59.110Z,97045.03
2023-02-27T13:31:36.636Z,97045.34
2023-02-27T13:34:15.042Z,97037.56
2023-02-27T13:36:47.107Z,97031.38
2023-02-27T13:39:41.206Z,97050.88
2023-02-27T13:42:52.431Z,97037.19
2023-02-27T13:45:50.866Z,97030.38
2023-02-27T13:48:46.328Z,97032.06
2023-02-27T13:51:54.314Z,97032.88
2023-02-27T13:54:42.880Z,97016.69
2023-02-27T13:57:23.564Z,97028.69
2023-02-27T13:59:58.306Z,97036.38
2023-02-27T14:02:37.476Z,97035.94
2023-02-27T14:05:09.943Z,97041.00
2023-02-27T14:07:58.918Z,97045.56
2023-02-27T14:10:30.971Z,97048.28
2023-02-27T14:13:00.430Z,97046.81
2023-02-27T14:15:55.256Z,97044.88
2023-02-27T14:18:56.257Z,97039.66
2023-02-27T14:22:00.372Z,97040.16
2023-02-27T14:24:38.120Z,97036.72
2023-02-27T14:27:27.598Z,97040.44
2023-02-27T14:29:58.534Z,97029.19
2023-02-27T14:32:30.565Z,97026.28
2023-02-27T14:34:58.374Z,97038.16
2023-02-27T14:37:27.701Z,97027.91
2023-02-27T14:39:57.190Z,97037.84
2023-02-27T14:42:45.578Z,97054.09
2023-02-27T14:45:17.312Z,97053.59
2023-02-27T14:47:47.440Z,97051.75
2023-02-27T14:50:24.890Z,97044.66
2023-02-27T14:52:53.167Z,97033.19
2023-02-27T14:55:28.099Z,97043.69
2023-02-27T14:58:01.461Z,97050.22
2023-02-27T15:00:32.274Z,97047.69
2023-02-27T15:03:01.338Z,97054.97
2023-02-27T15:05:34.963Z,97053.28
2023-02-27T15:08:04.909Z,97058.25
2023-02-27T15:10:33.378Z,97060.84
2023-02-27T15:13:03.849Z,97076.03
2023-02-27T15:15:32.908Z,97072.84
2023-02-27T15:18:01.069Z,97084.78
2023-02-27T15:20:31.070Z,97082.94
2023-02-27T15:22:59.561Z,97084.63
2023-02-27T15:25:30.078Z,97081.22
2023-02-27T15:28:03.917Z,97082.97
2023-02-27T15:30:32.238Z,97081.34
2023-02-27T15:33:02.780Z,97088.03
2023-02-27T15:35:38.994Z,97088.19
2023-02-27T15:38:07.580Z,97086.34
2023-02-27T15:40:36.229Z,97091.63
2023-02-27T15:43:07.076Z,97100.56
2023-02-27T15:45:37.063Z,97096.91
2023-02-27T15:48:06.359Z,97095.34
2023-02-27T15:50:37.108Z,97108.69
2023-02-27T15:53:10.279Z,97100.06
2023-02-27T15:55:40.109Z,97114.22
2023-02-27T15:58:22.459Z,97110.69
2023-02-27T16:01:01.700Z,97116.03
2023-02-27T16:03:33.117Z,97123.44
2023-02-27T16:06:01.490Z,97126.84
2023-02-27T16:08:31.902Z,97123.56
2023-02-27T16:10:59.706Z,97137.09
2023-02-27T16:13:43.271Z,97144.38
2023-02-27T16:16:26.570Z,97148.84
2023-02-27T16:18:56.377Z,97142.97
2023-02-27T16:21:26.257Z,97146.28
2023-02-27T16:23:54.943Z,97139.28
2023-02-27T16:26:28.465Z,97146.28
2023-02-27T16:29:00.613Z,97142.88
2023-02-27T16:31:31.662Z,97149.00
2023-02-27T16:34:01.911Z,97157.75
2023-02-27T16:36:34.056Z,97159.31
2023-02-27T16:39:01.850Z,97161.09
2023-02-27T16:41:30.095Z,97166.31
2023-02-27T16:44:00.100Z,97170.97
2023-02-27T16:46:28.299Z,97175.38
2023-02-27T16:49:00.744Z,97164.88
2023-02-27T16:51:34.650Z,97165.78
2023-02-27T16:54:02.449Z,97181.38
2023-02-27T16:56:38.205Z,97180.53
2023-02-27T16:59:08.511Z,97186.09
2023-02-27T17:01:36.402Z,97191.13
2023-02-27T17:04:16.437Z,97180.78
2023-02-27T17:06:51.686Z,97184.22
2023-02-27T17:09:19.656Z,97198.38
2023-02-27T17:11:48.072Z,97200.97
2023-02-27T17:14:17.288Z,97200.91
2023-02-27T17:16:45.314Z,97200.13
2023-02-27T17:19:14.150Z,97208.88
2023-02-27T17:21:42.755Z,97212.38
2023-02-27T17:24:11.349Z,97214.19
2023-02-27T17:26:39.218Z,97218.47
2023-02-27T17:29:08.593Z,97215.19
2023-02-27T17:31:37.989Z,97221.97
2023-02-27T17:34:09.270Z,97219.50
2023-02-27T17:36:37.536Z,97228.06
2023-02-27T17:39:05.629Z,97227.38
2023-02-27T17:41:34.029Z,97232.66
2023-02-27T17:44:02.383Z,97229.13
2023-02-27T17:46:32.151Z,97236.13
2023-02-27T17:49:01.784Z,97234.44
2023-02-27T17:51:31.152Z,97238.78
2023-02-27T17:54:03.178Z,97247.66
2023-02-27T17:56:31.448Z,97245.91
2023-02-27T17:58:59.441Z,97233.09
2023-02-27T18:01:28.941Z,97242.72
2023-02-27T18:03:56.998Z,97242.63
2023-02-27T18:06:26.953Z,97246.03
2023-02-27T18:08:55.205Z,97253.28
2023-02-27T18:11:23.719Z,97254.00
2023-02-27T18:13:53.300Z,97255.06
2023-02-27T18:16:23.008Z,97261.91
2023-02-27T18:18:51.478Z,97252.47
2023-02-27T18:21:21.150Z,97268.03
2023-02-27T18:23:51.661Z,97253.38
2023-02-27T18:26:30.485Z,97257.66
2023-02-27T18:29:02.212Z,97263.81
2023-02-27T18:31:32.038Z,97262.03
2023-02-27T18:34:00.826Z,97266.31
2023-02-27T18:36:29.385Z,97259.69
2023-02-27T18:38:59.467Z,97260.41
2023-02-27T18:41:27.500Z,97265.56
2023-02-27T18:43:56.020Z,97263.81
2023-02-27T18:46:23.884Z,97264.63
2023-02-27T18:48:53.391Z,97263.13
2023-02-27T18:51:23.185Z,97266.66
2023-02-27T18:53:51.932Z,97258.13
2023-02-27T18:56:24.972Z,97263.34
2023-02-27T18:58:53.582Z,97261.56
2023-02-27T19:01:26.575Z,97263.25
2023-02-27T19:04:03.303Z,97270.38
2023-02-27T19:06:32.109Z,97276.50
2023-02-27T19:09:00.006Z,97276.66
2023-02-27T19:11:33.884Z,97280.81
2023-02-27T19:14:02.082Z,97277.66
2023-02-27T19:16:30.803Z,97271.59
2023-02-27T19:19:00.589Z,97272.63
2023-02-27T19:21:29.401Z,97275.28
2023-02-27T19:23:57.608Z,97271.97
2023-02-27T19:26:26.658Z,97267.59
2023-02-27T19:28:57.656Z,97271.06
2023-02-27T19:31:26.220Z,97272.16
2023-02-27T19:33:54.160Z,97265.13
2023-02-27T19:36:25.557Z,97263.44
2023-02-27T19:38:54.038Z,97256.59
2023-02-27T19:41:22.754Z,97261.88
2023-02-27T19:43:53.143Z,97270.53
2023-02-27T19:46:25.163Z,97260.13
2023-02-27T19:48:55.019Z,97259.44
2023-02-27T19:51:24.492Z,97265.44
2023-02-27T19:53:53.699Z,97261.94
2023-02-27T19:56:24.801Z,97255.03
2023-02-27T19:58:54.012Z,97257.78
2023-02-27T20:01:26.639Z,97258.72
2023-02-27T20:03:56.283Z,97257.75
2023-02-27T20:06:27.208Z,97251.63
2023-02-27T20:08:56.411Z,97253.66
2023-02-27T20:11:25.560Z,97266.72
2023-02-27T20:13:54.430Z,97265.03
2023-02-27T20:16:24.254Z,97265.88
2023-02-27T20:18:52.270Z,97274.41
2023-02-27T20:21:22.258Z,97268.31
2023-02-27T20:23:51.927Z,97259.66
2023-02-27T20:26:21.564Z,97260.81
2023-02-27T20:28:52.778Z,97263.41
2023-02-27T20:31:25.742Z,97267.78
2023-02-27T20:33:54.792Z,97265.09
2023-02-27T20:36:23.508Z,97269.44
2023-02-27T20:38:52.622Z,97263.47
2023-02-27T20:41:23.534Z,97261.75
2023-02-27T20:43:52.234Z,97255.59
2023-02-27T20:46:24.566Z,97257.31
2023-02-27T20:48:52.443Z,97256.47
2023-02-27T20:51:23.072Z,97249.72
2023-02-27T20:53:53.779Z,97255.72
2023-02-27T20:56:22.938Z,97249.72
2023-02-27T20:58:51.225Z,97246.19
2023-02-27T21:01:19.665Z,97256.47
2023-02-27T21:03:50.706Z,97241.81
2023-02-27T21:06:20.364Z,97235.97
2023-02-27T21:08:51.537Z,97239.47
2023-02-27T21:11:22.024Z,97248.16
2023-02-27T21:13:51.400Z,97242.84
2023-02-27T21:16:20.738Z,97238.50
2023-02-27T21:18:51.374Z,97246.25
2023-02-27T21:21:22.975Z,97241.06
2023-02-27T21:23:54.181Z,97243.69
2023-02-27T21:26:24.849Z,97231.56
2023-02-27T21:28:53.593Z,97239.31
2023-02-27T21:31:24.546Z,97237.78
2023-02-27T21:33:55.752Z,97230.84
2023-02-27T21:36:26.904Z,97235.88
2023-02-27T21:38:59.168Z,97234.16
2023-02-27T21:41:29.652Z,97230.91
2023-02-27T21:44:01.487Z,97227.25
2023-02-27T21:46:30.820Z,97223.97
2023-02-27T21:49:01.264Z,97228.19
2023-02-27T21:51:39.914Z,97219.34
2023-02-27T21:54:10.885Z,97217.00
2023-02-27T21:56:40.872Z,97210.88
2023-02-27T21:59:11.051Z,97208.38
2023-02-27T22:01:40.471Z,97213.50
2023-02-27T22:04:11.783Z,97204.75
2023-02-27T22:06:40.388Z,97212.63
2023-02-27T22:09:08.299Z,97206.75
2023-02-27T22:11:36.318Z,97210.06
2023-02-27T22:14:06.264Z,97206.63
2023-02-27T22:16:35.308Z,97202.28
2023-02-27T22:19:07.575Z,97207.56
2023-02-27T22:21:38.456Z,97210.31
2023-02-27T22:25:20.189Z,97206.75
2023-02-27T22:27:48.001Z,97207.69
2023-02-27T22:30:16.020Z,97206.97
2023-02-27T22:32:45.841Z,97205.31
2023-02-27T22:35:14.802Z,97202.81
2023-02-27T22:37:44.163Z,97201.94
2023-02-27T22:40:13.647Z,97197.53
2023-02-27T22:42:41.900Z,97201.25
2023-02-27T22:45:10.615Z,97203.09
2023-02-27T22:47:38.506Z,97203.78
2023-02-27T22:50:08.470Z,97202.06
2023-02-27T22:52:38.208Z,97200.38
2023-02-27T22:55:08.641Z,97205.63
2023-02-27T22:57:38.030Z,97198.81
2023-02-27T23:00:09.960Z,97208.38
2023-02-27T23:02:41.868Z,97198.69
2023-02-27T23:05:10.665Z,97198.25
2023-02-27T23:07:39.725Z,97192.00
2023-02-27T23:10:12.254Z,97186.88
2023-02-27T23:12:41.653Z,97186.97
2023-02-27T23:15:11.133Z,97188.72
2023-02-27T23:17:51.991Z,97195.47
2023-02-27T23:20:24.304Z,97194.81
2023-02-27T23:22:53.111Z,97196.38
2023-02-27T23:25:23.219Z,97193.91
2023-02-27T23:27:51.249Z,97193.09
2023-02-27T23:30:20.350Z,97200.06
2023-02-27T23:32:48.727Z,97197.41
2023-02-27T23:35:22.807Z,97203.47
2023-02-27T23:37:52.181Z,97201.81
2023-02-27T23:40:20.426Z,97198.44
2023-02-27T23:42:49.847Z,97198.38
2023-02-27T23:45:24.364Z,97199.38
2023-02-27T23:47:54.577Z,97203.00
2023-02-27T23:50:25.333Z,97194.34
2023-02-27T23:52:54.797Z,97200.44
2023-02-27T23:55:23.789Z,97195.34
2023-02-27T23:57:55.224Z,97194.53
